Time;durP1;ratioP1;P1;durP2;ratioP2;P2;SDS_P1;SDS_P2;PMS_P1;PMS_P2;Temp;Humidity;BMP_temperature;BMP_pressure;BME280_temperature;BME280_humidity;BME280_pressure;Samples;Min_cycle;Max_cycle;Signal;HPM_P1;HPM_P2
2022/03/24 00:00:00;;;;;;;24.33;14.87;;;;;;;-0.03;98.39;102087.81;4944865;29;20242;-69
2022/03/24 00:02:26;;;;;;;23.07;13.93;;;;;;;-0.06;98.05;102087.66;4943963;28;20214;-68
2022/03/24 00:04:53;;;;;;;25.00;13.63;;;;;;;-0.09;98.69;102089.22;4948566;28;20221;-69
2022/03/24 00:07:19;;;;;;;22.87;14.63;;;;;;;-0.22;98.73;102080.19;4944847;28;20203;-68
2022/03/24 00:09:45;;;;;;;24.70;13.53;;;;;;;-0.10;100.00;102079.81;4947610;28;20250;-69
2022/03/24 00:12:12;;;;;;;24.77;14.50;;;;;;;-0.02;100.00;102080.97;4945052;28;20762;-69
2022/03/24 00:14:39;;;;;;;24.83;14.90;;;;;;;-0.16;100.00;102076.97;4945896;28;20881;-69
2022/03/24 00:17:07;;;;;;;25.27;14.50;;;;;;;-0.27;100.00;102085.09;4944970;28;20203;-69
2022/03/24 00:19:34;;;;;;;31.20;16.30;;;;;;;-0.06;100.00;102074.84;4946525;28;20549;-68
2022/03/24 00:22:00;;;;;;;27.93;15.93;;;;;;;-0.15;100.00;102076.19;4948649;28;20222;-68
2022/03/24 00:24:27;;;;;;;24.70;14.60;;;;;;;-0.23;100.00;102069.06;4943520;28;20206;-68
2022/03/24 00:26:53;;;;;;;23.43;14.80;;;;;;;-0.23;100.00;102070.72;4944450;28;20228;-69
2022/03/24 00:29:20;;;;;;;23.77;14.97;;;;;;;-0.28;100.00;102074.78;4945004;28;20253;-69
2022/03/24 00:31:47;;;;;;;24.53;13.93;;;;;;;-0.41;100.00;102081.09;4944604;23;20813;-74
2022/03/24 00:34:15;;;;;;;26.00;15.20;;;;;;;-0.42;100.00;102074.22;4996786;28;20229;-74
2022/03/24 00:36:41;;;;;;;23.27;14.50;;;;;;;-0.47;100.00;102080.84;4978737;28;20201;-72
2022/03/24 00:39:08;;;;;;;27.47;14.63;;;;;;;-0.60;100.00;102077.75;4981056;28;20658;-74
2022/03/24 00:41:35;;;;;;;23.53;13.67;;;;;;;-0.55;100.00;102075.38;4962250;28;20238;-74
2022/03/24 00:44:02;;;;;;;24.13;15.77;;;;;;;-0.60;100.00;102072.63;4970534;28;20392;-72
2022/03/24 00:46:31;;;;;;;27.20;16.10;;;;;;;-0.49;100.00;102072.19;4970196;28;20213;-76
2022/03/24 00:49:00;;;;;;;25.87;14.57;;;;;;;-0.47;100.00;102061.22;4975688;28;20206;-74
2022/03/24 00:51:28;;;;;;;27.57;15.37;;;;;;;-0.52;100.00;102055.00;4975040;28;20213;-75
2022/03/24 00:53:54;;;;;;;28.80;16.23;;;;;;;-0.51;100.00;102058.44;4969373;28;20223;-76
2022/03/24 00:56:21;;;;;;;27.97;16.50;;;;;;;-0.67;100.00;102060.38;4973206;28;20574;-77
2022/03/24 00:58:48;;;;;;;29.80;16.60;;;;;;;-0.74;100.00;102062.59;4971058;28;20194;-76
2022/03/24 01:01:14;;;;;;;29.70;16.03;;;;;;;-0.82;100.00;102057.16;4975135;28;20201;-76
2022/03/24 01:03:43;;;;;;;25.07;15.00;;;;;;;-0.72;100.00;102061.88;4962740;28;20473;-77
2022/03/24 01:06:16;;;;;;;23.40;14.97;;;;;;;-0.73;100.00;102052.41;4978425;28;20198;-77
2022/03/24 01:08:45;;;;;;;29.37;16.20;;;;;;;-0.79;100.00;102052.16;4964531;28;20562;-75
2022/03/24 01:11:13;;;;;;;31.80;17.10;;;;;;;-0.49;100.00;102047.47;4967794;28;20197;-76
2022/03/24 01:13:40;;;;;;;26.63;15.20;;;;;;;-0.76;100.00;102054.84;4967950;28;20480;-77
2022/03/24 01:16:09;;;;;;;26.13;14.93;;;;;;;-0.64;100.00;102051.94;4969329;28;20205;-75
2022/03/24 01:18:37;;;;;;;28.03;14.93;;;;;;;-0.74;100.00;102049.78;4961949;28;20229;-77
2022/03/24 01:21:04;;;;;;;27.10;16.10;;;;;;;-0.81;100.00;102054.66;4964495;28;20462;-76
2022/03/24 01:23:30;;;;;;;27.20;15.87;;;;;;;-0.91;100.00;102059.31;4966905;28;20221;-77
2022/03/24 01:26:00;;;;;;;25.03;16.17;;;;;;;-0.86;100.00;102061.25;4965874;28;20500;-77
2022/03/24 01:28:29;;;;;;;27.97;16.17;;;;;;;-0.91;100.00;102051.63;4958894;28;20228;-77
2022/03/24 01:30:55;;;;;;;30.27;15.50;;;;;;;-0.87;100.00;102045.84;4966918;28;20715;-76
2022/03/24 01:33:23;;;;;;;28.03;16.47;;;;;;;-1.05;100.00;102041.66;4963801;28;20245;-77
2022/03/24 01:35:50;;;;;;;26.77;16.40;;;;;;;-1.00;100.00;102036.75;4969141;28;20480;-77
2022/03/24 01:38:19;;;;;;;26.70;16.10;;;;;;;-1.00;100.00;102040.19;4968977;28;20210;-77
2022/03/24 01:40:46;;;;;;;26.50;16.10;;;;;;;-1.12;100.00;102043.88;4960843;28;20305;-75
2022/03/24 01:43:14;;;;;;;26.00;16.27;;;;;;;-1.21;100.00;102042.66;4969073;28;20882;-77
2022/03/24 01:45:41;;;;;;;25.63;15.97;;;;;;;-1.07;100.00;102043.28;4971770;28;20465;-77
2022/03/24 01:48:08;;;;;;;27.30;16.43;;;;;;;-1.16;100.00;102040.31;4967739;28;20495;-76
2022/03/24 01:50:35;;;;;;;22.90;14.70;;;;;;;-1.15;100.00;102048.03;4974394;28;20484;-77
2022/03/24 01:53:02;;;;;;;27.00;15.27;;;;;;;-1.27;100.00;102049.19;4963687;28;20482;-76
2022/03/24 01:55:30;;;;;;;27.43;15.53;;;;;;;-1.39;100.00;102045.28;4974807;28;20448;-77
2022/03/24 01:57:56;;;;;;;30.17;16.57;;;;;;;-1.40;100.00;102046.06;4970107;28;20508;-77
2022/03/24 02:00:24;;;;;;;28.50;17.27;;;;;;;-1.43;100.00;102039.94;4970351;28;20230;-77
2022/03/24 02:02:51;;;;;;;25.83;15.10;;;;;;;-1.18;100.00;102040.25;4961096;28;20488;-77
2022/03/24 02:05:17;;;;;;;26.97;16.13;;;;;;;-1.29;100.00;102045.69;4966822;28;20515;-77
2022/03/24 02:07:44;;;;;;;25.30;15.30;;;;;;;-1.38;100.00;102047.00;4959723;28;20493;-75
2022/03/24 02:10:12;;;;;;;23.63;14.13;;;;;;;-1.27;100.00;102046.63;4961823;28;20527;-77
2022/03/24 02:12:41;;;;;;;22.80;14.90;;;;;;;-1.40;100.00;102040.09;4965653;28;20578;-76
2022/03/24 02:15:10;;;;;;;25.77;15.53;;;;;;;-1.30;100.00;102034.56;4963452;28;20467;-77
2022/03/24 02:17:41;;;;;;;25.43;14.67;;;;;;;-1.30;100.00;102042.25;4973066;28;20895;-74
2022/03/24 02:20:09;;;;;;;25.07;15.17;;;;;;;-1.42;100.00;102040.00;4968006;28;20458;-77
2022/03/24 02:22:38;;;;;;;24.73;15.40;;;;;;;-1.45;100.00;102044.97;4955726;28;20570;-76
2022/03/24 02:25:09;;;;;;;29.23;15.50;;;;;;;-1.39;100.00;102045.28;4965708;28;20464;-77
2022/03/24 02:27:36;;;;;;;26.30;15.37;;;;;;;-1.51;100.00;102039.59;4969556;28;21106;-77
2022/03/24 02:30:04;;;;;;;29.03;15.17;;;;;;;-1.57;100.00;102046.97;4955995;28;20481;-76
2022/03/24 02:32:31;;;;;;;28.53;15.83;;;;;;;-1.53;100.00;102041.19;4959929;28;20543;-77
2022/03/24 02:34:57;;;;;;;27.33;15.90;;;;;;;-1.54;100.00;102050.56;4960408;28;20897;-77
2022/03/24 02:37:25;;;;;;;26.17;15.10;;;;;;;-1.40;100.00;102037.53;4962785;28;20470;-75
2022/03/24 02:39:55;;;;;;;29.53;16.43;;;;;;;-1.40;100.00;102038.41;4963400;28;20456;-76
2022/03/24 02:42:23;;;;;;;28.47;16.37;;;;;;;-1.57;100.00;102044.41;4972216;28;20830;-76
2022/03/24 02:44:51;;;;;;;24.37;15.77;;;;;;;-1.47;100.00;102038.06;4967160;28;20463;-76
2022/03/24 02:47:18;;;;;;;31.10;16.70;;;;;;;-1.55;100.00;102045.34;4961807;28;20871;-76
2022/03/24 02:49:46;;;;;;;26.23;15.27;;;;;;;-1.39;100.00;102035.03;4973915;28;20488;-76
2022/03/24 02:52:13;;;;;;;27.27;15.87;;;;;;;-1.66;100.00;102041.44;4964245;28;20482;-77
2022/03/24 02:54:41;;;;;;;26.83;15.97;;;;;;;-1.70;100.00;102047.22;4961841;28;20462;-75
2022/03/24 02:57:09;;;;;;;27.33;16.17;;;;;;;-1.73;100.00;102040.28;4967602;28;20455;-77
2022/03/24 02:59:36;;;;;;;25.30;15.70;;;;;;;-1.82;100.00;102040.72;4970122;28;20472;-77
2022/03/24 03:02:06;;;;;;;31.43;16.17;;;;;;;-1.93;100.00;102049.56;4966737;28;20969;-76
2022/03/24 03:04:34;;;;;;;27.93;14.93;;;;;;;-1.98;100.00;102049.34;4968647;28;20510;-76
2022/03/24 03:07:02;;;;;;;25.93;15.40;;;;;;;-1.97;100.00;102050.22;4971552;28;20443;-74
2022/03/24 03:09:29;;;;;;;26.60;15.47;;;;;;;-1.95;100.00;102054.59;4963993;28;20495;-77
2022/03/24 03:11:56;;;;;;;24.93;16.30;;;;;;;-2.01;100.00;102051.75;4957666;28;20548;-77
2022/03/24 03:14:24;;;;;;;25.13;14.63;;;;;;;-2.11;100.00;102058.09;4963563;28;20854;-77
2022/03/24 03:16:51;;;;;;;29.70;15.70;;;;;;;-2.07;100.00;102056.56;4959642;28;20455;-77
2022/03/24 03:19:19;;;;;;;25.23;15.67;;;;;;;-2.03;100.00;102065.28;4957400;28;20873;-77
2022/03/24 03:21:48;;;;;;;29.73;16.60;;;;;;;-2.04;100.00;102054.19;4976868;28;20542;-75
2022/03/24 03:24:14;;;;;;;28.73;16.03;;;;;;;-2.05;100.00;102054.09;4969264;28;20488;-77
2022/03/24 03:26:41;;;;;;;25.10;16.47;;;;;;;-1.83;100.00;102053.44;4966060;28;20462;-77
2022/03/24 03:29:09;;;;;;;30.37;16.57;;;;;;;-2.13;100.00;102059.72;4957272;28;20563;-76
2022/03/24 03:31:37;;;;;;;27.63;16.97;;;;;;;-2.20;100.00;102064.44;4964514;28;20692;-76
2022/03/24 03:34:04;;;;;;;30.40;17.80;;;;;;;-1.98;100.00;102067.25;4962848;28;20483;-76
2022/03/24 03:36:31;;;;;;;30.97;17.57;;;;;;;-2.06;100.00;102057.44;4965039;28;20465;-75
2022/03/24 03:38:58;;;;;;;31.57;16.80;;;;;;;-1.89;100.00;102066.81;4978828;28;20533;-75
2022/03/24 03:41:26;;;;;;;28.90;17.70;;;;;;;-2.12;100.00;102065.69;4973687;28;20459;-76
2022/03/24 03:43:53;;;;;;;30.90;17.20;;;;;;;-1.93;100.00;102059.81;4966277;28;20829;-76
2022/03/24 03:46:19;;;;;;;33.63;18.13;;;;;;;-2.03;100.00;102066.13;4976766;28;20477;-77
2022/03/24 03:48:48;;;;;;;35.00;18.33;;;;;;;-2.02;100.00;102059.34;4980024;28;20468;-76
2022/03/24 03:51:15;;;;;;;30.13;17.63;;;;;;;-2.16;100.00;102062.13;4966643;28;20472;-77
2022/03/24 03:53:42;;;;;;;34.67;18.97;;;;;;;-1.96;100.00;102065.63;4971777;28;20545;-77
2022/03/24 03:56:09;;;;;;;30.77;18.80;;;;;;;-1.78;100.00;102062.19;4977916;28;20494;-77
2022/03/24 03:58:36;;;;;;;33.20;18.63;;;;;;;-2.08;100.00;102064.16;4972143;28;20459;-76
2022/03/24 04:01:03;;;;;;;33.13;17.97;;;;;;;-2.16;100.00;102063.81;4969211;28;20462;-75
2022/03/24 04:03:31;;;;;;;34.37;18.63;;;;;;;-2.10;100.00;102059.84;4985469;28;21137;-75
2022/03/24 04:06:01;;;;;;;33.73;17.80;;;;;;;-2.15;100.00;102061.28;4982840;28;20461;-75
2022/03/24 04:08:28;;;;;;;33.07;18.93;;;;;;;-2.15;100.00;102062.97;4965183;28;20465;-77
2022/03/24 04:10:56;;;;;;;35.13;18.33;;;;;;;-2.19;100.00;102061.09;4976746;28;20511;-77
2022/03/24 04:13:23;;;;;;;32.53;18.07;;;;;;;-2.03;100.00;102058.47;4975022;28;20560;-76
2022/03/24 04:15:51;;;;;;;34.83;19.00;;;;;;;-2.21;100.00;102065.25;4965777;28;20455;-76
2022/03/24 04:18:18;;;;;;;33.80;18.40;;;;;;;-2.15;100.00;102068.09;4970013;28;21000;-77
2022/03/24 04:20:45;;;;;;;35.90;18.90;;;;;;;-2.30;100.00;102060.56;4973261;28;20459;-77
2022/03/24 04:23:13;;;;;;;34.13;18.33;;;;;;;-2.34;100.00;102058.66;4969638;28;20486;-74
2022/03/24 04:25:40;;;;;;;30.30;17.20;;;;;;;-2.41;100.00;102065.16;4973937;28;20454;-77
2022/03/24 04:28:08;;;;;;;36.17;18.83;;;;;;;-2.40;100.00;102060.91;4972821;28;20459;-75
2022/03/24 04:30:35;;;;;;;30.73;18.53;;;;;;;-2.48;100.00;102068.16;4973278;28;20473;-75
2022/03/24 04:33:01;;;;;;;32.40;18.17;;;;;;;-2.65;100.00;102067.34;4961534;28;20485;-75
2022/03/24 04:35:28;;;;;;;33.13;19.30;;;;;;;-2.56;100.00;102059.28;4971946;28;20466;-76
2022/03/24 04:37:56;;;;;;;29.17;17.43;;;;;;;-2.33;100.00;102063.84;4969419;28;20531;-76
2022/03/24 04:40:24;;;;;;;34.97;19.23;;;;;;;-2.15;100.00;102063.84;4969961;28;20458;-77
2022/03/24 04:42:56;;;;;;;31.70;17.60;;;;;;;-2.49;100.00;102072.41;4972448;28;20481;-76
2022/03/24 04:45:26;;;;;;;31.80;18.17;;;;;;;-2.35;100.00;102072.25;4970242;28;20527;-76
2022/03/24 04:47:53;;;;;;;35.50;19.03;;;;;;;-2.64;100.00;102068.22;4968758;28;20465;-76
2022/03/24 04:50:20;;;;;;;34.63;18.90;;;;;;;-2.47;100.00;102064.84;4978492;28;20480;-76
2022/03/24 04:52:47;;;;;;;33.93;17.77;;;;;;;-2.58;100.00;102069.41;4967823;28;20835;-77
2022/03/24 04:55:14;;;;;;;32.00;17.87;;;;;;;-2.37;100.00;102067.03;4971291;28;20484;-77
2022/03/24 04:57:42;;;;;;;32.17;18.27;;;;;;;-2.49;100.00;102061.31;4966261;28;20464;-77
2022/03/24 05:00:10;;;;;;;29.53;18.13;;;;;;;-2.63;100.00;102069.97;4966344;28;20460;-76
2022/03/24 05:02:37;;;;;;;33.43;17.80;;;;;;;-2.76;100.00;102069.34;4964925;28;20462;-77
2022/03/24 05:05:05;;;;;;;36.17;18.60;;;;;;;-2.71;100.00;102075.56;4974670;28;20541;-77
2022/03/24 05:07:32;;;;;;;31.77;16.83;;;;;;;-2.43;100.00;102076.94;4965891;28;20451;-77
2022/03/24 05:09:58;;;;;;;34.60;17.87;;;;;;;-2.59;100.00;102070.19;4966960;28;20466;-77
2022/03/24 05:12:24;;;;;;;33.57;18.80;;;;;;;-2.68;100.00;102079.94;4976979;28;20465;-76
2022/03/24 05:14:52;;;;;;;38.27;19.10;;;;;;;-2.75;100.00;102078.75;4985897;23;20505;-68
2022/03/24 05:17:19;;;;;;;33.40;18.63;;;;;;;-2.58;100.00;102068.53;4957505;28;20463;-69
2022/03/24 05:19:48;;;;;;;35.97;19.20;;;;;;;-2.68;100.00;102080.81;4957708;28;20830;-68
2022/03/24 05:22:14;;;;;;;29.90;18.03;;;;;;;-2.69;100.00;102073.97;4956044;28;20533;-68
2022/03/24 05:24:41;;;;;;;33.57;18.20;;;;;;;-2.61;100.00;102073.47;4950771;28;20980;-68
2022/03/24 05:27:08;;;;;;;37.00;19.23;;;;;;;-2.47;100.00;102077.59;4948719;28;20466;-68
2022/03/24 05:29:35;;;;;;;37.47;18.50;;;;;;;-2.30;100.00;102076.78;4949794;28;20993;-69
2022/03/24 05:32:04;;;;;;;36.67;18.97;;;;;;;-2.19;100.00;102077.28;4949075;28;20502;-69
2022/03/24 05:34:31;;;;;;;33.70;18.97;;;;;;;-2.23;100.00;102083.06;4947370;28;20737;-68
2022/03/24 05:36:58;;;;;;;41.63;20.37;;;;;;;-2.38;100.00;102080.59;4952332;28;20471;-67
2022/03/24 05:39:24;;;;;;;34.17;18.80;;;;;;;-2.26;100.00;102084.59;4949776;28;20467;-68
2022/03/24 05:41:50;;;;;;;37.90;19.03;;;;;;;-2.13;100.00;102080.16;4954926;28;20470;-69
2022/03/24 05:44:17;;;;;;;34.77;18.47;;;;;;;-2.19;100.00;102081.53;4954941;28;20993;-68
2022/03/24 05:46:45;;;;;;;36.90;20.20;;;;;;;-2.22;100.00;102084.81;4951760;28;20455;-68
2022/03/24 05:49:15;;;;;;;38.00;19.67;;;;;;;-2.35;100.00;102083.31;4953822;28;20462;-69
2022/03/24 05:51:49;;;;;;;38.43;19.53;;;;;;;-2.28;100.00;102087.06;4955364;28;20561;-68
2022/03/24 05:54:17;;;;;;;34.30;19.23;;;;;;;-2.18;100.00;102090.94;4948351;28;20472;-68
2022/03/24 05:56:45;;;;;;;35.23;19.43;;;;;;;-2.23;100.00;102093.28;4945751;28;21061;-69
2022/03/24 05:59:11;;;;;;;38.93;20.30;;;;;;;-2.03;100.00;102093.38;4947084;28;21179;-68
2022/03/24 06:01:39;;;;;;;34.50;19.23;;;;;;;-2.06;100.00;102095.78;4947680;28;20470;-69
2022/03/24 06:04:06;;;;;;;38.63;20.67;;;;;;;-1.76;100.00;102101.50;4945625;28;20462;-68
2022/03/24 06:06:34;;;;;;;35.87;20.07;;;;;;;-1.85;100.00;102093.41;4945907;28;20482;-68
2022/03/24 06:09:02;;;;;;;42.90;21.43;;;;;;;-1.75;100.00;102100.72;4951285;28;20485;-69
2022/03/24 06:11:28;;;;;;;36.10;20.77;;;;;;;-1.63;100.00;102095.31;4949886;28;20499;-69
2022/03/24 06:13:55;;;;;;;39.63;21.57;;;;;;;-1.47;100.00;102084.97;4958636;28;20571;-69
2022/03/24 06:16:22;;;;;;;39.90;21.50;;;;;;;-1.31;100.00;102081.44;4953374;28;20452;-69
2022/03/24 06:18:48;;;;;;;44.00;20.93;;;;;;;-1.25;100.00;102085.94;4958412;28;20562;-68
2022/03/24 06:21:15;;;;;;;44.67;24.30;;;;;;;-1.25;100.00;102085.94;4958225;28;20828;-67
2022/03/24 06:23:43;;;;;;;43.03;22.73;;;;;;;-1.04;100.00;102078.38;4959831;28;20988;-69
2022/03/24 06:26:09;;;;;;;46.00;23.87;;;;;;;-1.01;100.00;102089.63;4955412;28;20478;-68
2022/03/24 06:28:36;;;;;;;46.63;24.77;;;;;;;-0.89;100.00;102085.88;4952540;28;20479;-69
2022/03/24 06:31:05;;;;;;;45.70;22.80;;;;;;;-0.84;100.00;102085.25;4951501;28;20483;-68
2022/03/24 06:33:31;;;;;;;52.00;25.73;;;;;;;-0.75;100.00;102096.72;4938046;28;20884;-68
2022/03/24 06:35:58;;;;;;;48.70;25.53;;;;;;;-0.71;100.00;102090.91;4952046;28;20918;-69
2022/03/24 06:38:24;;;;;;;46.67;24.43;;;;;;;-0.55;100.00;102098.44;4956023;28;20487;-69
2022/03/24 06:40:52;;;;;;;49.47;24.90;;;;;;;-0.47;100.00;102098.78;4952724;28;20464;-68
2022/03/24 06:43:18;;;;;;;49.63;24.60;;;;;;;-0.44;100.00;102101.44;4953737;28;20506;-68
2022/03/24 06:45:44;;;;;;;47.30;25.60;;;;;;;-0.38;100.00;102100.03;4952898;28;20457;-68
2022/03/24 06:48:11;;;;;;;44.67;24.57;;;;;;;-0.39;100.00;102098.31;4957060;28;20874;-68
2022/03/24 06:50:38;;;;;;;52.10;26.63;;;;;;;-0.28;100.00;102103.88;4952641;28;20470;-69
2022/03/24 06:53:05;;;;;;;58.23;27.10;;;;;;;-0.16;100.00;102118.00;4957249;28;20853;-68
2022/03/24 06:55:31;;;;;;;53.40;27.23;;;;;;;-0.07;100.00;102116.72;4959672;28;21079;-67
2022/03/24 06:57:59;;;;;;;53.23;27.93;;;;;;;0.07;100.00;102122.41;4958808;28;20216;-69
2022/03/24 07:00:25;;;;;;;52.90;27.53;;;;;;;0.21;100.00;102127.19;4951261;28;20203;-68
2022/03/24 07:02:52;;;;;;;50.40;26.77;;;;;;;0.34;100.00;102126.88;4950034;28;20226;-69
2022/03/24 07:05:18;;;;;;;49.07;25.53;;;;;;;0.51;100.00;102117.28;4950505;28;20336;-68
2022/03/24 07:07:45;;;;;;;47.77;26.37;;;;;;;0.63;100.00;102122.88;4954095;28;20586;-68
2022/03/24 07:10:11;;;;;;;43.87;25.00;;;;;;;0.78;100.00;102126.88;4958451;28;20208;-69
2022/03/24 07:12:38;;;;;;;48.00;24.73;;;;;;;0.91;100.00;102129.94;4959180;28;20702;-69
2022/03/24 07:15:08;;;;;;;44.43;23.90;;;;;;;1.05;100.00;102127.03;4959491;28;20683;-68
2022/03/24 07:17:34;;;;;;;47.70;26.23;;;;;;;1.23;100.00;102129.38;4953756;28;20221;-69
2022/03/24 07:20:00;;;;;;;47.33;25.30;;;;;;;1.28;100.00;102131.28;4962064;28;20277;-68
2022/03/24 07:22:32;;;;;;;50.67;25.73;;;;;;;1.43;100.00;102135.25;4960881;28;20550;-68
2022/03/24 07:24:58;;;;;;;46.60;25.40;;;;;;;1.50;100.00;102135.50;4962350;28;20225;-68
2022/03/24 07:27:24;;;;;;;42.77;24.93;;;;;;;1.61;100.00;102143.59;4959687;28;20213;-69
2022/03/24 07:29:51;;;;;;;42.00;24.80;;;;;;;1.69;100.00;102139.59;4960585;28;20709;-68
2022/03/24 07:32:19;;;;;;;50.57;25.37;;;;;;;1.83;100.00;102144.31;4962042;28;20698;-68
2022/03/24 07:34:46;;;;;;;48.23;25.23;;;;;;;2.03;98.74;102139.88;4960240;28;20206;-68
2022/03/24 07:37:12;;;;;;;46.00;24.73;;;;;;;2.17;97.13;102148.06;4962415;28;20469;-69
2022/03/24 07:39:39;;;;;;;44.40;25.33;;;;;;;2.37;97.90;102139.25;4960543;28;20223;-68
2022/03/24 07:42:07;;;;;;;47.00;25.07;;;;;;;2.62;95.11;102142.59;4958789;28;20319;-69
2022/03/24 07:44:34;;;;;;;46.73;26.13;;;;;;;2.70;94.47;102143.72;4960862;28;20263;-69
2022/03/24 07:47:00;;;;;;;42.87;24.97;;;;;;;2.88;93.44;102153.69;4961853;28;20569;-69
2022/03/24 07:49:28;;;;;;;42.73;24.37;;;;;;;2.98;92.16;102155.72;4963190;28;20207;-69
2022/03/24 07:51:54;;;;;;;40.23;24.10;;;;;;;3.12;93.65;102150.09;4961608;28;20237;-69
2022/03/24 07:54:40;;;;;;;49.30;25.63;;;;;;;3.26;94.24;102141.06;4959454;28;20218;-69
2022/03/24 07:57:07;;;;;;;53.43;27.47;;;;;;;3.33;94.12;102142.97;4960391;28;20206;-68
2022/03/24 07:59:34;;;;;;;54.63;27.20;;;;;;;3.46;93.39;102138.16;4961165;28;20221;-69
2022/03/24 08:02:01;;;;;;;46.57;25.77;;;;;;;3.55;92.81;102151.28;4960407;28;20221;-69
2022/03/24 08:04:28;;;;;;;46.43;24.80;;;;;;;3.69;90.89;102149.94;4952750;28;20714;-68
2022/03/24 08:06:55;;;;;;;39.17;23.20;;;;;;;3.88;89.80;102146.16;4960872;28;20198;-69
2022/03/24 08:09:21;;;;;;;42.67;23.70;;;;;;;4.02;88.31;102148.22;4954347;28;20205;-68
2022/03/24 08:11:48;;;;;;;41.23;23.50;;;;;;;4.19;86.54;102146.94;4957938;28;20228;-68
2022/03/24 08:14:14;;;;;;;39.97;22.93;;;;;;;4.31;85.46;102154.97;4955607;28;20718;-69
2022/03/24 08:16:41;;;;;;;46.33;24.80;;;;;;;4.51;84.73;102158.03;4958990;28;20484;-69
2022/03/24 08:19:07;;;;;;;45.33;24.67;;;;;;;4.69;83.09;102160.16;4958903;28;20214;-69
2022/03/24 08:21:35;;;;;;;44.40;23.93;;;;;;;4.83;83.43;102168.22;4957610;28;20214;-69
2022/03/24 08:24:01;;;;;;;44.77;24.17;;;;;;;5.04;80.27;102174.69;4957057;28;20225;-68
2022/03/24 08:26:27;;;;;;;42.73;23.47;;;;;;;5.16;78.74;102171.50;4957241;28;20206;-69
2022/03/24 08:28:56;;;;;;;50.90;24.70;;;;;;;5.23;77.57;102175.97;4962218;28;20259;-69
2022/03/24 08:31:23;;;;;;;44.53;23.73;;;;;;;5.38;76.65;102175.38;4956300;28;20526;-69
2022/03/24 08:33:50;;;;;;;46.77;24.87;;;;;;;5.58;76.16;102179.25;4955590;28;20276;-69
2022/03/24 08:36:16;;;;;;;51.07;25.23;;;;;;;5.68;74.92;102178.59;4957699;28;20208;-69
2022/03/24 08:38:43;;;;;;;44.17;24.17;;;;;;;5.82;75.77;102180.53;4954851;28;20603;-69
2022/03/24 08:41:10;;;;;;;46.47;24.30;;;;;;;5.81;75.81;102186.59;4958793;28;20198;-69
2022/03/24 08:43:36;;;;;;;42.57;24.30;;;;;;;5.94;73.86;102190.25;4951115;28;20748;-69
2022/03/24 08:46:03;;;;;;;45.50;25.20;;;;;;;6.11;73.99;102193.19;4955169;28;20199;-69
2022/03/24 08:48:30;;;;;;;46.03;25.60;;;;;;;6.17;73.42;102186.38;4958999;28;20213;-69
2022/03/24 08:50:57;;;;;;;54.60;27.77;;;;;;;6.33;73.80;102182.34;4958939;28;20294;-69
2022/03/24 08:53:23;;;;;;;45.20;25.53;;;;;;;6.52;74.69;102190.41;4958803;28;20601;-69
2022/03/24 08:55:51;;;;;;;46.27;26.47;;;;;;;6.59;74.86;102190.50;4958218;28;20594;-69
2022/03/24 08:58:18;;;;;;;47.67;27.87;;;;;;;6.72;72.33;102190.69;4955344;28;20221;-69
2022/03/24 09:00:45;;;;;;;57.53;33.27;;;;;;;6.86;67.25;102196.09;4948480;28;20551;-69
2022/03/24 09:03:12;;;;;;;60.80;32.30;;;;;;;6.98;66.71;102198.84;4951419;28;20486;-69
2022/03/24 09:05:38;;;;;;;54.50;30.17;;;;;;;7.01;67.42;102194.56;4952327;28;20217;-68
2022/03/24 09:08:06;;;;;;;56.07;30.97;;;;;;;7.19;66.22;102193.06;4953943;28;20228;-69
2022/03/24 09:10:33;;;;;;;50.50;30.40;;;;;;;7.28;64.42;102197.50;4957307;28;20218;-68
2022/03/24 09:13:00;;;;;;;54.93;30.30;;;;;;;7.40;66.00;102189.88;4961442;28;20261;-70
2022/03/24 09:15:27;;;;;;;50.87;30.17;;;;;;;7.47;63.57;102198.63;4953271;28;20201;-69
2022/03/24 09:17:53;;;;;;;46.97;28.57;;;;;;;7.61;63.57;102188.38;4956249;28;20615;-69
2022/03/24 09:20:21;;;;;;;52.43;27.90;;;;;;;7.70;67.79;102191.09;4955492;28;20210;-69
2022/03/24 09:22:49;;;;;;;51.80;30.73;;;;;;;7.80;68.99;102179.94;4956778;28;20230;-69
2022/03/24 09:25:17;;;;;;;44.80;28.80;;;;;;;7.85;65.40;102188.66;4955343;28;20203;-68
2022/03/24 09:27:45;;;;;;;46.60;27.97;;;;;;;8.01;63.51;102189.66;4955039;28;20234;-69
2022/03/24 09:30:15;;;;;;;49.60;30.30;;;;;;;8.09;65.13;102197.53;4962174;28;20216;-68
2022/03/24 09:32:45;;;;;;;53.53;31.70;;;;;;;8.27;63.73;102189.03;4958445;28;20238;-69
2022/03/24 09:35:11;;;;;;;56.20;30.30;;;;;;;8.41;62.99;102197.81;4954134;28;20655;-69
2022/03/24 09:37:37;;;;;;;51.87;30.33;;;;;;;8.53;63.82;102187.53;4954539;28;20704;-69
2022/03/24 09:40:06;;;;;;;50.60;29.00;;;;;;;8.53;61.22;102200.53;4954726;28;20619;-69
2022/03/24 09:42:33;;;;;;;49.53;28.77;;;;;;;8.63;58.50;102209.25;4954374;28;20325;-69
2022/03/24 09:45:02;;;;;;;48.40;27.97;;;;;;;8.77;58.41;102206.75;4957595;28;20633;-69
2022/03/24 09:47:30;;;;;;;51.43;29.47;;;;;;;8.90;59.27;102203.41;4958326;28;20290;-69
2022/03/24 09:49:57;;;;;;;48.77;30.90;;;;;;;9.08;57.57;102204.34;4955723;28;20532;-69
2022/03/24 09:52:24;;;;;;;47.97;28.70;;;;;;;9.11;59.02;102199.16;4958847;28;20598;-68
2022/03/24 09:54:51;;;;;;;46.03;27.77;;;;;;;9.25;59.14;102196.63;4952692;28;20539;-70
2022/03/24 09:57:17;;;;;;;48.47;29.07;;;;;;;9.38;56.94;102211.44;4958219;28;20206;-69
2022/03/24 09:59:46;;;;;;;48.40;27.53;;;;;;;9.48;58.28;102205.41;4954272;28;20211;-69
2022/03/24 10:02:12;;;;;;;40.40;24.93;;;;;;;9.53;57.69;102209.75;4958520;28;20699;-69
2022/03/24 10:04:49;;;;;;;46.63;25.50;;;;;;;9.64;57.98;102202.84;4952813;28;20195;-70
2022/03/24 10:07:16;;;;;;;47.93;28.03;;;;;;;9.88;58.26;102201.16;4955298;28;20207;-68
2022/03/24 10:09:45;;;;;;;44.70;27.33;;;;;;;9.96;57.40;102205.53;4954956;28;20209;-69
2022/03/24 10:12:18;;;;;;;40.87;27.03;;;;;;;10.10;56.67;102208.16;4958030;28;20231;-69
2022/03/24 10:14:45;;;;;;;47.47;29.13;;;;;;;10.21;56.00;102205.53;4954890;28;20215;-70
2022/03/24 10:17:12;;;;;;;55.13;31.70;;;;;;;10.24;55.46;102205.56;4955792;28;20588;-69
2022/03/24 10:19:39;;;;;;;38.33;25.27;;;;;;;10.20;54.19;102204.69;4955789;28;20221;-67
2022/03/24 10:22:12;;;;;;;48.17;27.63;;;;;;;10.26;56.31;102203.81;4957581;28;20242;-68
2022/03/24 10:24:41;;;;;;;50.53;28.67;;;;;;;10.52;56.34;102195.16;4953265;28;20664;-67
2022/03/24 10:27:07;;;;;;;47.57;27.37;;;;;;;10.58;56.31;102189.94;4955903;28;20209;-67
2022/03/24 10:29:35;;;;;;;38.07;24.53;;;;;;;10.77;52.92;102198.59;4953685;28;20209;-68
2022/03/24 10:32:04;;;;;;;40.67;24.87;;;;;;;10.82;51.13;102202.06;4956328;28;20232;-68
2022/03/24 10:34:32;;;;;;;41.47;25.03;;;;;;;10.89;51.09;102198.56;4953499;28;20256;-67
2022/03/24 10:37:02;;;;;;;39.77;23.97;;;;;;;10.99;51.74;102192.47;4954612;28;20222;-68
2022/03/24 10:39:30;;;;;;;38.50;23.30;;;;;;;11.06;51.59;102187.19;4952171;28;20209;-68
2022/03/24 10:42:11;;;;;;;38.93;23.37;;;;;;;11.13;50.65;102187.19;4958678;28;20202;-67
2022/03/24 10:44:38;;;;;;;38.87;23.60;;;;;;;11.26;50.85;102187.16;4954528;28;20214;-66
2022/03/24 10:47:04;;;;;;;40.43;23.53;;;;;;;11.29;49.57;102195.84;4960595;28;20206;-67
2022/03/24 10:49:32;;;;;;;37.87;24.03;;;;;;;11.41;47.93;102187.06;4962421;28;20678;-68
2022/03/24 10:52:01;;;;;;;41.00;23.30;;;;;;;11.52;46.41;102193.13;4961437;28;20244;-67
2022/03/24 10:54:46;;;;;;;35.67;20.93;;;;;;;11.62;45.06;102193.06;4962216;28;20328;-67
2022/03/24 10:57:14;;;;;;;38.63;21.93;;;;;;;11.78;45.50;102188.59;4961897;28;20201;-67
2022/03/24 10:59:45;;;;;;;40.13;22.67;;;;;;;11.80;45.95;102184.22;4958535;28;20211;-67
2022/03/24 11:02:13;;;;;;;37.10;22.07;;;;;;;11.83;45.18;102185.09;4959554;28;20218;-66
2022/03/24 11:04:39;;;;;;;37.80;21.97;;;;;;;11.95;45.86;102183.31;4956907;28;20723;-67
2022/03/24 11:07:06;;;;;;;36.97;21.53;;;;;;;11.96;46.92;102172.84;4951900;28;20213;-68